CZBA weather

Burlington Executive
Burlington, Ontario, Canada

Public forecast

Using degrees Celsius for public forecast. Weather courtesy of forecast.io.

Closest aviation weather report (METAR) to Burlington Executive

Closest report is John C. Munro Hamilton International Airport, 16.5 nm (30.6 km) SSW. Retrieved 2019/10/21 23:00 UTC (44 minutes ago):

CYHM 212300Z 05014G21KT 15SM FEW008 SCT090 BKN200 OVC240 12/11 A2985 RMK SF1AC3CC2CI2 SLP111

Closest aviation forecast (TAF) to Burlington Executive

Closest forecast is John C. Munro Hamilton International Airport, 16.5 nm (30.6 km) SSW. Retrieved 2019/10/21 18:42 UTC (5 hours ago):

TAF TAF CYHM 211738Z 2118/2218 04012KT P6SM FEW015 SCT160 BKN250 FM211900 06012G22KT P6SM FEW020 OVC220 FM220100 08012KT P6SM SCT080 BKN200 FM220300 12010KT P6SM BKN050 OVC180 TEMPO 2203/2205 P6SM -SHRA OVC040 FM220500 15010KT P6SM -SHRA OVC030 TEMPO 2205/2207 5SM -SHRA BR OVC020 FM220700 17010G20KT 3SM -RA BR OVC008 FM221400 21015KT 5SM -SHRA BR SCT008 OVC015 FM221700 21015G25KT P6SM -SHRA BKN025 OVC110 RMK NXT FCST BY 220000Z